createdAt,value
2023-02-06T00:01:35.302Z,-4.36
2023-02-06T00:04:04.663Z,-4.45
2023-02-06T00:06:33.426Z,-4.56
2023-02-06T00:09:01.969Z,-4.57
2023-02-06T00:11:30.095Z,-4.67
2023-02-06T00:13:58.194Z,-4.65
2023-02-06T00:16:27.760Z,-4.67
2023-02-06T00:18:57.389Z,-4.70
2023-02-06T00:21:28.255Z,-4.75
2023-02-06T00:23:57.735Z,-4.70
2023-02-06T00:26:26.073Z,-4.62
2023-02-06T00:28:54.265Z,-4.47
2023-02-06T00:31:22.283Z,-4.34
2023-02-06T00:33:50.388Z,-4.26
2023-02-06T00:36:18.249Z,-4.26
2023-02-06T00:38:47.480Z,-4.23
2023-02-06T00:41:15.346Z,-4.33
2023-02-06T00:43:43.607Z,-4.29
2023-02-06T00:46:11.865Z,-4.26
2023-02-06T00:48:39.883Z,-4.24
2023-02-06T00:51:07.696Z,-4.31
2023-02-06T00:53:38.051Z,-4.34
2023-02-06T00:56:07.725Z,-4.37
2023-02-06T00:58:35.650Z,-4.42
2023-02-06T01:01:04.568Z,-4.46
2023-02-06T01:03:32.426Z,-4.53
2023-02-06T01:06:00.350Z,-4.59
2023-02-06T01:08:28.201Z,-4.55
2023-02-06T01:10:56.038Z,-4.54
2023-02-06T01:13:25.247Z,-4.61
2023-02-06T01:15:53.271Z,-4.61
2023-02-06T01:18:21.206Z,-4.46
2023-02-06T01:20:49.063Z,-4.48
2023-02-06T01:23:16.973Z,-4.46
2023-02-06T01:25:45.472Z,-4.46
2023-02-06T01:28:13.471Z,-4.51
2023-02-06T01:30:43.898Z,-4.56
2023-02-06T01:33:11.866Z,-4.53
2023-02-06T01:35:39.793Z,-4.51
2023-02-06T01:38:08.563Z,-4.50
2023-02-06T01:40:36.457Z,-4.48
2023-02-06T01:43:04.282Z,-4.54
2023-02-06T01:45:45.937Z,-4.62
2023-02-06T01:48:18.126Z,-4.51
2023-02-06T01:50:52.468Z,-4.66
2023-02-06T01:53:23.471Z,-4.55
2023-02-06T01:55:53.594Z,-4.63
2023-02-06T01:58:26.894Z,-4.66
2023-02-06T02:00:58.568Z,-4.56
2023-02-06T02:03:27.194Z,-4.53
2023-02-06T02:06:00.602Z,-4.53
2023-02-06T02:08:34.931Z,-4.66
2023-02-06T02:11:04.395Z,-4.95
2023-02-06T02:13:34.198Z,-5.03
2023-02-06T02:16:13.363Z,-5.03
2023-02-06T02:19:06.457Z,-4.97
2023-02-06T02:22:08.588Z,-4.77
2023-02-06T02:25:00.160Z,-4.64
2023-02-06T02:27:45.681Z,-4.62
2023-02-06T02:30:48.979Z,-4.66
2023-02-06T02:33:58.699Z,-4.67
2023-02-06T02:36:35.013Z,-4.58
2023-02-06T02:39:11.216Z,-4.48
2023-02-06T02:41:45.419Z,-4.42
2023-02-06T02:44:22.305Z,-4.37
2023-02-06T02:46:55.270Z,-4.43
2023-02-06T02:49:27.511Z,-4.41
2023-02-06T02:51:58.675Z,-4.48
2023-02-06T02:54:26.535Z,-4.50
2023-02-06T02:56:56.523Z,-4.54
2023-02-06T02:59:30.493Z,-4.59
2023-02-06T03:02:03.688Z,-4.84
2023-02-06T03:04:38.958Z,-4.77
2023-02-06T03:07:18.738Z,-4.86
2023-02-06T03:09:55.110Z,-4.91
2023-02-06T03:12:38.925Z,-5.00
2023-02-06T03:15:14.776Z,-5.05
2023-02-06T03:17:47.462Z,-5.11
2023-02-06T03:20:16.001Z,-5.10
2023-02-06T03:22:48.478Z,-5.17
2023-02-06T03:25:23.820Z,-5.26
2023-02-06T03:27:53.745Z,-5.30
2023-02-06T03:30:23.943Z,-5.35
2023-02-06T03:32:57.452Z,-5.41
2023-02-06T03:35:30.747Z,-5.33
2023-02-06T03:38:00.138Z,-5.31
2023-02-06T03:40:29.646Z,-5.33
2023-02-06T03:43:01.936Z,-5.33
2023-02-06T03:45:33.167Z,-5.37
2023-02-06T03:48:05.349Z,-5.36
2023-02-06T03:50:37.003Z,-5.38
2023-02-06T03:53:06.601Z,-5.39
2023-02-06T03:55:35.863Z,-5.38
2023-02-06T03:58:08.298Z,-5.38
2023-02-06T04:00:38.654Z,-5.43
2023-02-06T04:03:06.887Z,-5.41
2023-02-06T04:05:35.098Z,-5.51
2023-02-06T04:08:03.248Z,-5.50
2023-02-06T04:10:32.437Z,-5.35
2023-02-06T04:13:00.428Z,-5.33
2023-02-06T04:15:28.316Z,-5.34
2023-02-06T04:18:01.551Z,-5.42
2023-02-06T04:20:30.690Z,-5.47
2023-02-06T04:22:58.651Z,-5.52
2023-02-06T04:25:27.033Z,-5.54
2023-02-06T04:27:56.372Z,-5.54
2023-02-06T04:30:24.309Z,-5.55
2023-02-06T04:32:52.653Z,-5.50
2023-02-06T04:35:20.719Z,-5.57
2023-02-06T04:37:48.608Z,-5.55
2023-02-06T04:40:16.669Z,-5.55
2023-02-06T04:42:44.699Z,-5.59
2023-02-06T04:45:14.427Z,-5.53
2023-02-06T04:47:42.272Z,-5.57
2023-02-06T04:50:11.395Z,-5.53
2023-02-06T04:52:39.226Z,-5.53
2023-02-06T04:55:07.788Z,-5.58
2023-02-06T04:57:35.722Z,-5.57
2023-02-06T05:00:03.758Z,-5.57
2023-02-06T05:02:37.464Z,-5.58
2023-02-06T05:05:05.819Z,-5.57
2023-02-06T05:07:33.694Z,-5.60
2023-02-06T05:10:01.708Z,-5.64
2023-02-06T05:12:29.952Z,-5.69
2023-02-06T05:14:57.801Z,-5.76
2023-02-06T05:17:25.721Z,-5.70
2023-02-06T05:19:56.441Z,-5.67
2023-02-06T05:22:25.810Z,-5.66
2023-02-06T05:24:53.833Z,-5.59
2023-02-06T05:27:21.715Z,-5.60
2023-02-06T05:29:49.577Z,-5.68
2023-02-06T05:32:18.211Z,-5.57
2023-02-06T05:34:46.358Z,-5.57
2023-02-06T05:37:15.545Z,-5.67
2023-02-06T05:39:43.388Z,-5.61
2023-02-06T05:42:11.324Z,-5.56
2023-02-06T05:44:39.195Z,-5.71
2023-02-06T05:47:07.085Z,-5.95
2023-02-06T05:49:34.962Z,-6.05
2023-02-06T05:52:02.879Z,-6.12
2023-02-06T05:54:32.372Z,-6.22
2023-02-06T05:57:00.218Z,-6.24
2023-02-06T05:59:28.150Z,-6.24
2023-02-06T06:01:56.060Z,-6.24
2023-02-06T06:04:24.153Z,-6.22
2023-02-06T06:06:52.308Z,-6.15
2023-02-06T06:09:20.236Z,-6.00
2023-02-06T06:11:51.220Z,-5.89
2023-02-06T06:14:19.424Z,-5.77
2023-02-06T06:16:47.442Z,-5.60
2023-02-06T06:19:15.375Z,-5.47
2023-02-06T06:21:43.280Z,-5.45
2023-02-06T06:24:11.271Z,-5.45
2023-02-06T06:26:39.366Z,-5.58
2023-02-06T06:29:08.558Z,-5.66
2023-02-06T06:31:39.381Z,-5.60
2023-02-06T06:34:07.242Z,-5.54
2023-02-06T06:36:35.135Z,-5.51
2023-02-06T06:39:03.020Z,-5.49
2023-02-06T06:41:30.923Z,-5.49
2023-02-06T06:43:59.608Z,-5.48
2023-02-06T06:46:28.791Z,-5.43
2023-02-06T06:49:53.988Z,-5.37
2023-02-06T06:52:25.464Z,-5.35
2023-02-06T06:54:53.755Z,-5.40
2023-02-06T06:57:22.161Z,-5.43
2023-02-06T06:59:50.492Z,-5.46
2023-02-06T07:02:19.780Z,-5.46
2023-02-06T07:04:47.880Z,-5.49
2023-02-06T07:07:16.107Z,-5.52
2023-02-06T07:09:43.952Z,-5.47
2023-02-06T07:12:11.887Z,-5.49
2023-02-06T07:14:41.319Z,-5.50
2023-02-06T07:17:09.294Z,-5.55
2023-02-06T07:19:38.527Z,-5.57
2023-02-06T07:22:06.442Z,-5.60
2023-02-06T07:24:34.315Z,-5.59
2023-02-06T07:27:02.185Z,-5.59
2023-02-06T07:29:30.085Z,-5.55
2023-02-06T07:32:00.762Z,-5.53
2023-02-06T07:34:28.892Z,-5.61
2023-02-06T07:36:59.711Z,-5.54
2023-02-06T07:39:27.665Z,-5.54
2023-02-06T07:41:55.485Z,-5.48
2023-02-06T07:44:27.833Z,-5.40
2023-02-06T07:46:55.628Z,-5.37
2023-02-06T07:49:23.531Z,-5.35
2023-02-06T07:51:51.530Z,-5.29
2023-02-06T07:54:21.063Z,-5.25
2023-02-06T07:56:48.921Z,-5.25
2023-02-06T07:59:17.536Z,-5.16
2023-02-06T08:01:45.801Z,-5.18
2023-02-06T08:04:13.774Z,-5.15
2023-02-06T08:06:42.550Z,-5.29
2023-02-06T08:09:13.414Z,-5.12
2023-02-06T08:11:49.783Z,-5.15
2023-02-06T08:14:17.674Z,-5.16
2023-02-06T08:16:45.637Z,-5.27
2023-02-06T08:19:13.580Z,-5.17
2023-02-06T08:21:41.541Z,-5.27
2023-02-06T08:24:12.724Z,-5.02
2023-02-06T08:26:40.672Z,-4.94
2023-02-06T08:29:10.416Z,-4.89
2023-02-06T08:31:40.344Z,-4.80
2023-02-06T08:34:10.814Z,-4.69
2023-02-06T08:36:39.653Z,-4.57
2023-02-06T08:39:08.193Z,-4.38
2023-02-06T08:41:38.087Z,-4.29
2023-02-06T08:44:09.107Z,-4.07
2023-02-06T08:46:39.825Z,-3.89
2023-02-06T08:49:09.875Z,-3.73
2023-02-06T08:51:37.730Z,-3.60
2023-02-06T08:54:07.896Z,-3.47
2023-02-06T08:56:37.249Z,-3.35
2023-02-06T08:59:06.408Z,-3.30
2023-02-06T09:01:36.362Z,-3.22
2023-02-06T09:04:07.474Z,-3.16
2023-02-06T09:06:36.132Z,-3.13
2023-02-06T09:09:05.478Z,-3.09
2023-02-06T09:11:33.738Z,-3.09
2023-02-06T09:14:03.548Z,-3.03
2023-02-06T09:16:33.220Z,-3.05
2023-02-06T09:19:02.236Z,-3.06
2023-02-06T09:21:32.871Z,-3.10
2023-02-06T09:24:03.013Z,-3.16
2023-02-06T09:26:38.899Z,-3.26
2023-02-06T09:29:10.986Z,-3.26
2023-02-06T09:31:41.022Z,-3.25
2023-02-06T09:34:10.070Z,-3.25
2023-02-06T09:36:39.390Z,-3.23
2023-02-06T09:39:09.500Z,-3.24
2023-02-06T09:41:43.045Z,-3.30
2023-02-06T09:44:17.484Z,-3.31
2023-02-06T09:46:50.511Z,-3.29
2023-02-06T09:49:25.956Z,-3.28
2023-02-06T09:52:10.292Z,-3.34
2023-02-06T09:54:47.078Z,-3.36
2023-02-06T09:57:21.020Z,-3.34
2023-02-06T09:59:52.841Z,-3.31
2023-02-06T10:02:35.930Z,-3.34
2023-02-06T10:05:17.434Z,-3.38
2023-02-06T10:07:59.115Z,-3.39
2023-02-06T10:10:36.232Z,-3.43
2023-02-06T10:13:10.132Z,-3.38
2023-02-06T10:15:45.216Z,-3.36
2023-02-06T10:18:17.344Z,-3.37
2023-02-06T10:20:51.863Z,-3.57
2023-02-06T10:23:29.981Z,-3.39
2023-02-06T10:26:05.917Z,-3.40
2023-02-06T10:28:35.582Z,-3.34
2023-02-06T10:31:15.881Z,-3.29
2023-02-06T10:33:53.092Z,-3.27
2023-02-06T10:36:38.157Z,-3.28
2023-02-06T10:39:38.098Z,-3.26
2023-02-06T10:42:16.366Z,-3.30
2023-02-06T10:44:53.056Z,-3.31
2023-02-06T10:47:33.799Z,-3.25
2023-02-06T10:50:09.709Z,-3.16
2023-02-06T10:52:39.275Z,-3.09
2023-02-06T10:55:19.515Z,-3.12
2023-02-06T10:57:50.943Z,-3.01
2023-02-06T11:00:25.898Z,-3.13
2023-02-06T11:03:06.589Z,-3.15
2023-02-06T11:05:36.628Z,-3.13
2023-02-06T11:08:12.394Z,-3.04
2023-02-06T11:10:42.147Z,-2.93
2023-02-06T11:13:16.299Z,-2.94
2023-02-06T11:15:50.461Z,-2.83
2023-02-06T11:18:21.777Z,-2.72
2023-02-06T11:20:51.614Z,-2.71
2023-02-06T11:23:20.943Z,-2.53
2023-02-06T11:25:58.557Z,-2.52
2023-02-06T11:28:27.290Z,-2.37
2023-02-06T11:30:58.048Z,-2.29
2023-02-06T11:33:32.694Z,-2.27
2023-02-06T11:36:01.368Z,-2.25
2023-02-06T11:38:31.556Z,-2.25
2023-02-06T11:41:02.954Z,-2.21
2023-02-06T11:43:33.140Z,-2.16
2023-02-06T11:46:14.980Z,-2.12
2023-02-06T11:48:44.919Z,-2.06
2023-02-06T11:51:14.449Z,-2.08
2023-02-06T11:53:57.925Z,-2.04
2023-02-06T11:56:29.073Z,-1.92
2023-02-06T11:59:07.045Z,-1.84
2023-02-06T12:01:44.968Z,-1.76
2023-02-06T12:04:23.696Z,-1.65
2023-02-06T12:06:55.762Z,-1.63
2023-02-06T12:09:23.680Z,-1.51
2023-02-06T12:11:58.028Z,-1.50
2023-02-06T12:14:36.180Z,-1.66
2023-02-06T12:17:09.700Z,-1.58
2023-02-06T12:19:49.792Z,-1.63
2023-02-06T12:22:23.568Z,-1.75
2023-02-06T12:24:54.805Z,-1.75
2023-02-06T12:27:29.217Z,-1.70
2023-02-06T12:30:02.402Z,-1.67
2023-02-06T12:32:36.105Z,-1.68
2023-02-06T12:35:16.345Z,-1.65
2023-02-06T12:37:51.885Z,-1.62
2023-02-06T12:40:36.050Z,-1.60
2023-02-06T12:43:09.483Z,-1.54
2023-02-06T12:45:46.313Z,-1.50
2023-02-06T12:48:20.682Z,-1.43
2023-02-06T12:51:05.736Z,-1.39
2023-02-06T12:53:37.852Z,-1.34
2023-02-06T12:56:21.710Z,-1.26
2023-02-06T12:58:59.626Z,-1.20
2023-02-06T13:01:51.996Z,-1.14
2023-02-06T13:04:23.945Z,-1.02
2023-02-06T13:06:55.242Z,-0.93
2023-02-06T13:09:27.502Z,-0.89
2023-02-06T13:12:08.732Z,-0.81
2023-02-06T13:14:40.002Z,-0.82
2023-02-06T13:17:11.641Z,-0.95
2023-02-06T13:20:00.669Z,-0.94
2023-02-06T13:22:47.447Z,-0.86
2023-02-06T13:25:51.787Z,-0.77
2023-02-06T13:28:59.438Z,-0.65
2023-02-06T13:31:31.317Z,-0.58
2023-02-06T13:34:02.656Z,-0.45
2023-02-06T13:36:47.706Z,-0.37
2023-02-06T13:39:24.162Z,-0.33
2023-02-06T13:41:52.193Z,-0.27
2023-02-06T13:44:26.381Z,-0.20
2023-02-06T13:47:33.742Z,-0.08
2023-02-06T13:50:35.398Z,0.02
2023-02-06T13:53:32.192Z,0.07
2023-02-06T13:56:15.394Z,0.05
2023-02-06T13:58:49.359Z,0.18
2023-02-06T14:01:22.777Z,0.21
2023-02-06T14:03:54.094Z,0.34
2023-02-06T14:06:36.501Z,0.43
2023-02-06T14:09:30.507Z,0.55
2023-02-06T14:12:25.363Z,0.62
2023-02-06T14:15:12.467Z,0.66
2023-02-06T14:17:59.280Z,0.69
2023-02-06T14:20:39.340Z,0.70
2023-02-06T14:23:17.269Z,0.76
2023-02-06T14:25:57.307Z,0.83
2023-02-06T14:28:39.221Z,0.85
2023-02-06T14:31:16.233Z,0.92
2023-02-06T14:34:10.262Z,0.96
2023-02-06T14:36:59.441Z,0.95
2023-02-06T14:39:45.306Z,0.93
2023-02-06T14:42:18.547Z,0.95
2023-02-06T14:44:51.355Z,0.91
2023-02-06T14:47:23.424Z,0.89
2023-02-06T14:49:52.530Z,0.82
2023-02-06T14:52:25.136Z,0.72
2023-02-06T14:54:53.701Z,0.64
2023-02-06T14:57:25.084Z,0.63
2023-02-06T14:59:55.787Z,0.58
2023-02-06T15:02:28.477Z,0.57
2023-02-06T15:04:57.153Z,0.51
2023-02-06T15:07:30.965Z,0.54
2023-02-06T15:10:02.835Z,0.53
2023-02-06T15:12:32.106Z,0.53
2023-02-06T15:15:02.853Z,0.51
2023-02-06T15:17:33.989Z,0.51
2023-02-06T15:20:36.376Z,0.40
2023-02-06T15:23:17.880Z,0.37
2023-02-06T15:26:06.380Z,0.33
2023-02-06T15:28:37.014Z,0.29
2023-02-06T15:31:05.259Z,0.25
2023-02-06T15:33:34.627Z,0.19
2023-02-06T15:36:04.408Z,0.07
2023-02-06T15:38:35.046Z,-0.06
2023-02-06T15:41:06.688Z,-0.21
2023-02-06T15:43:36.199Z,-0.37
2023-02-06T15:46:06.247Z,-0.52
2023-02-06T15:48:37.318Z,-0.69
2023-02-06T15:51:19.691Z,-0.83
2023-02-06T15:53:50.950Z,-0.95
2023-02-06T15:56:24.338Z,-1.02
2023-02-06T15:58:58.794Z,-1.15
2023-02-06T16:01:28.962Z,-1.28
2023-02-06T16:04:00.292Z,-1.29
2023-02-06T16:06:28.302Z,-1.37
2023-02-06T16:09:02.848Z,-1.47
2023-02-06T16:11:50.715Z,-1.52
2023-02-06T16:14:22.902Z,-1.59
2023-02-06T16:16:59.035Z,-1.67
2023-02-06T16:19:39.604Z,-1.73
2023-02-06T16:22:16.954Z,-1.82
2023-02-06T16:24:46.600Z,-1.87
2023-02-06T16:27:21.260Z,-1.96
2023-02-06T16:29:52.659Z,-2.08
2023-02-06T16:32:24.970Z,-2.10
2023-02-06T16:34:53.525Z,-2.19
2023-02-06T16:37:23.155Z,-2.19
2023-02-06T16:39:52.976Z,-2.22
2023-02-06T16:42:22.856Z,-2.23
2023-02-06T16:44:54.453Z,-2.28
2023-02-06T16:47:22.957Z,-2.30
2023-02-06T16:49:51.936Z,-2.34
2023-02-06T16:52:23.666Z,-2.37
2023-02-06T16:54:55.618Z,-2.40
2023-02-06T16:57:29.353Z,-2.56
2023-02-06T16:59:57.655Z,-2.43
2023-02-06T17:02:27.056Z,-2.46
2023-02-06T17:04:55.303Z,-2.48
2023-02-06T17:07:26.055Z,-2.49
2023-02-06T17:09:59.348Z,-2.46
2023-02-06T17:12:27.362Z,-2.51
2023-02-06T17:14:55.650Z,-2.46
2023-02-06T17:17:24.306Z,-2.46
2023-02-06T17:19:53.241Z,-2.45
2023-02-06T17:22:21.237Z,-2.46
2023-02-06T17:24:49.423Z,-2.45
2023-02-06T17:27:20.777Z,-2.46
2023-02-06T17:29:49.336Z,-2.66
2023-02-06T17:32:21.650Z,-2.60
2023-02-06T17:34:51.361Z,-2.88
2023-02-06T17:37:21.609Z,-2.85
2023-02-06T17:39:51.207Z,-2.99
2023-02-06T17:42:21.937Z,-3.01
2023-02-06T17:44:50.066Z,-2.99
2023-02-06T17:47:18.319Z,-2.94
2023-02-06T17:49:47.743Z,-2.94
2023-02-06T17:52:15.822Z,-2.99
2023-02-06T17:54:43.752Z,-3.06
2023-02-06T17:57:13.361Z,-3.09
2023-02-06T17:59:42.716Z,-3.15
2023-02-06T18:02:13.559Z,-3.11
2023-02-06T18:04:41.622Z,-3.07
2023-02-06T18:07:09.547Z,-3.06
2023-02-06T18:09:37.684Z,-3.03
2023-02-06T18:12:05.710Z,-3.00
2023-02-06T18:14:33.894Z,-2.92
2023-02-06T18:17:03.791Z,-2.89
2023-02-06T18:19:31.919Z,-2.91
2023-02-06T18:22:00.219Z,-2.97
2023-02-06T18:24:28.068Z,-3.05
2023-02-06T18:26:56.123Z,-3.15
2023-02-06T18:29:24.147Z,-3.18
2023-02-06T18:31:52.029Z,-3.20
2023-02-06T18:34:21.598Z,-3.20
2023-02-06T18:36:49.762Z,-3.17
2023-02-06T18:39:18.167Z,-3.15
2023-02-06T18:42:03.581Z,-3.10
2023-02-06T18:44:31.679Z,-3.06
2023-02-06T18:46:59.611Z,-3.01
2023-02-06T18:49:28.921Z,-3.08
2023-02-06T18:51:56.934Z,-3.14
2023-02-06T18:54:25.003Z,-3.13
2023-02-06T18:56:52.923Z,-3.10
2023-02-06T18:59:21.034Z,-3.12
2023-02-06T19:01:49.199Z,-3.13
2023-02-06T19:04:17.119Z,-3.17
2023-02-06T19:06:47.216Z,-3.16
2023-02-06T19:09:16.030Z,-3.16
2023-02-06T19:11:44.309Z,-3.28
2023-02-06T19:14:15.817Z,-3.43
2023-02-06T19:16:47.350Z,-3.55
2023-02-06T19:19:15.667Z,-3.65
2023-02-06T19:21:44.242Z,-3.62
2023-02-06T19:24:15.649Z,-3.66
2023-02-06T19:26:44.254Z,-3.69
2023-02-06T19:29:34.347Z,-3.71
2023-02-06T19:32:03.699Z,-3.74
2023-02-06T19:34:33.503Z,-3.75
2023-02-06T19:37:02.842Z,-3.77
2023-02-06T19:39:34.083Z,-3.85
2023-02-06T19:42:04.133Z,-3.70
2023-02-06T19:44:33.371Z,-3.64
2023-02-06T19:47:02.454Z,-3.54
2023-02-06T19:49:31.397Z,-3.44
2023-02-06T19:51:59.358Z,-3.37
2023-02-06T19:54:27.400Z,-3.35
2023-02-06T19:56:56.734Z,-3.36
2023-02-06T19:59:26.511Z,-3.35
2023-02-06T20:01:57.086Z,-3.35
2023-02-06T20:04:28.086Z,-3.34
2023-02-06T20:06:58.807Z,-3.39
2023-02-06T20:09:28.351Z,-3.54
2023-02-06T20:11:58.516Z,-3.60
2023-02-06T20:14:30.352Z,-3.73
2023-02-06T20:16:58.439Z,-3.76
2023-02-06T20:19:28.971Z,-3.77
2023-02-06T20:21:58.958Z,-3.84
2023-02-06T20:24:29.092Z,-3.98
2023-02-06T20:27:06.672Z,-3.79
2023-02-06T20:29:37.729Z,-3.78
2023-02-06T20:32:06.704Z,-3.70
2023-02-06T20:34:35.463Z,-3.75
2023-02-06T20:37:04.026Z,-3.83
2023-02-06T20:39:32.071Z,-3.86
2023-02-06T20:42:01.352Z,-3.89
2023-02-06T20:44:29.788Z,-3.95
2023-02-06T20:46:57.666Z,-4.09
2023-02-06T20:49:27.643Z,-4.09
2023-02-06T20:51:55.694Z,-4.11
2023-02-06T20:54:24.914Z,-4.16
2023-02-06T20:56:53.295Z,-4.27
2023-02-06T20:59:23.180Z,-4.38
2023-02-06T21:01:51.016Z,-4.33
2023-02-06T21:04:20.162Z,-4.21
2023-02-06T21:06:49.862Z,-4.18
2023-02-06T21:09:18.879Z,-4.16
2023-02-06T21:11:48.612Z,-4.12
2023-02-06T21:14:17.212Z,-4.08
2023-02-06T21:16:46.681Z,-4.13
2023-02-06T21:19:16.958Z,-4.11
2023-02-06T21:21:46.323Z,-4.14
2023-02-06T21:24:15.646Z,-4.32
2023-02-06T21:26:43.953Z,-4.48
2023-02-06T21:29:14.164Z,-4.58
2023-02-06T21:31:42.270Z,-4.59
2023-02-06T21:34:14.633Z,-4.67
2023-02-06T21:36:42.746Z,-4.61
2023-02-06T21:39:12.637Z,-4.55
2023-02-06T21:41:40.550Z,-4.39
2023-02-06T21:44:08.527Z,-4.36
2023-02-06T21:46:36.471Z,-4.43
2023-02-06T21:49:06.350Z,-4.43
2023-02-06T21:51:35.642Z,-4.47
2023-02-06T21:54:03.900Z,-4.45
2023-02-06T21:56:32.209Z,-4.48
2023-02-06T21:59:00.104Z,-4.60
2023-02-06T22:01:30.868Z,-4.66
2023-02-06T22:03:59.672Z,-4.64
2023-02-06T22:06:28.939Z,-4.77
2023-02-06T22:09:05.130Z,-4.76
2023-02-06T22:11:33.162Z,-4.79
2023-02-06T22:14:02.556Z,-4.72
2023-02-06T22:16:30.671Z,-4.72
2023-02-06T22:19:00.620Z,-4.75
2023-02-06T22:21:30.195Z,-4.77
2023-02-06T22:24:01.068Z,-4.83
2023-02-06T22:26:31.026Z,-4.77
2023-02-06T22:28:58.974Z,-4.76
2023-02-06T22:31:29.008Z,-4.72
2023-02-06T22:33:58.806Z,-4.70
2023-02-06T22:36:29.055Z,-4.74
2023-02-06T22:39:01.126Z,-4.79
2023-02-06T22:41:29.834Z,-4.87
2023-02-06T22:43:58.370Z,-4.88
2023-02-06T22:46:28.181Z,-4.82
2023-02-06T22:48:56.568Z,-4.85
2023-02-06T22:51:25.003Z,-4.83
2023-02-06T22:53:53.328Z,-4.95
2023-02-06T22:56:36.042Z,-5.06
2023-02-06T22:59:06.307Z,-5.16
2023-02-06T23:01:36.329Z,-5.37
2023-02-06T23:04:06.529Z,-5.48
2023-02-06T23:06:36.106Z,-5.55
2023-02-06T23:09:06.520Z,-5.62
2023-02-06T23:11:36.482Z,-5.69
2023-02-06T23:14:06.508Z,-5.63
2023-02-06T23:16:35.690Z,-5.66
2023-02-06T23:19:05.647Z,-5.34
2023-02-06T23:21:35.878Z,-5.21
2023-02-06T23:24:05.003Z,-5.17
2023-02-06T23:26:33.224Z,-5.21
2023-02-06T23:29:08.718Z,-5.19
2023-02-06T23:31:37.598Z,-5.21
2023-02-06T23:34:05.753Z,-5.26
2023-02-06T23:36:33.859Z,-5.12
2023-02-06T23:39:02.770Z,-5.08
2023-02-06T23:41:31.009Z,-5.08
2023-02-06T23:44:00.564Z,-5.13
2023-02-06T23:46:32.241Z,-5.13
2023-02-06T23:49:00.346Z,-5.14
2023-02-06T23:51:28.590Z,-5.19
2023-02-06T23:53:56.443Z,-5.16
2023-02-06T23:56:25.989Z,-5.16
2023-02-06T23:58:54.920Z,-5.16
